Tiempo atmosférico en la estación meteorológica de Huercal Overa, Almería (295 m.)



Fecha
DESCASC
Temp. máxima en grados centígrados (hora)
DESCASC
Temp. mínima en grados centígrados (hora)
DESCASC
Temp. media en grados centígrados
DESCASC
Racha de viento máxima en m/sg (hora)
DESCASC
Velocidad máxima media en intervalos de 10 minutos(hora)
DESCASC
Precipitaciones diarias en mm
DESCASC
Precipitaciones de 00:00 a 06:00 en mm
DESCASC
Precipitaciones de 06:00 a 12:00 en mm
DESCASC
Precipitaciones de 12:00 a 18:00 en mm
DESCASC
Precipitaciones de 18:00 a 24:00 en mm
DESCASC

Gráficas

Temp. máximas Temp. mínimas Temp. medias Precipitaciones Rachas de viento máximas Velocidades máximas media en intervalos de 10 minutos

Datos horarios

Fecha y hora oficial Temperatura (ºC) Velocidad del viento (km/h) Dirección del viento Racha (km/h) Dirección de racha Precipitación (mm) Presión (hPa) Tendencia (hPa) Humedad (%)
2020-03-29 23:00:00 11.8 0 Calma 12 Nordeste 0 980.7 0.1 72
2020-03-29 22:00:00 13 4 Este 10 Nordeste 0 980.8 0.2 59
2020-03-29 21:00:00 14.4 4 Sur 14 Sudeste 0 980.6 0.2 40
2020-03-29 20:00:00 15.9 8 Sur 19 Sudoeste 0 980.6 -0.1 36
2020-03-29 19:00:00 16.9 12 Sur 22 Sur 0 980.6 -0.4 38
2020-03-29 18:00:00 16.9 11 Sur 24 Sur 0 980.4 -1.1 37
2020-03-29 17:00:00 17.3 10 Sur 27 Sudoeste 0 980.7 -1.5 29
2020-03-29 16:00:00 16.7 12 Sur 26 Sur 0 981 -1.8 27
2020-03-29 15:00:00 16.9 15 Sudoeste 26 Sudoeste 0 981.5 -1.7 28
2020-03-29 14:00:00 18 5 Sudoeste 18 Sudoeste 0 982.2 -1.3 20
2020-03-29 13:00:00 17.6 4 Sudeste 12 Sudoeste 0 982.8 -0.7 20
2020-03-29 12:00:00 17.1 0 Calma 4 Sudeste 0 983.2 -0.2 28
2020-03-29 11:00:00 14.4 0 Calma 5 Sudeste 0 983.5 0.9 40
2020-03-29 10:00:00 10.4 0 Calma 5 Sudoeste 0 983.5 1 56
2020-03-29 09:00:00 8.1 0 Calma 3 Este 0 983.4 0.8 76
2020-03-29 08:00:00 5 0 Calma 9 Noroeste 0 982.6 -0.3 83
2020-03-29 07:00:00 5.2 0 Calma 9 Oeste 0 982.5 -1 83
2020-03-29 06:00:00 5.3 0 Calma 3 Sudeste 0 982.6 -1.4 83
2020-03-29 05:00:00 5.3 0 Calma 4 Oeste 0 982.9 -1.6 83
2020-03-29 03:00:00 6.5 0 Calma 5 Sur 0 984 -0.7 83
2020-03-29 01:00:00 7 0 Calma 4 Sur 0 984.5 -0.1 83
2020-03-29 00:00:00 7.3 0 Calma 8 Oeste 0 984.6 0.5 82
2020-03-28 23:00:00 8.1 0 Calma 6 Oeste 0 984.7 1.3 81
2020-03-28 22:00:00 9 2 Noroeste 8 Oeste 0 984.6 1.9 78
2020-03-28 21:00:00 10 0 Calma 6 Sudoeste 0 984.1 2.1 73
2020-03-28 20:00:00 10.2 6 Sudoeste 16 Sur 0 983.4 1.9 71
2020-03-28 19:00:00 11.3 9 Sur 26 Sudoeste 0 982.7 1.2 59
2020-03-28 18:00:00 13.1 10 Sudoeste 22 Sur 0 982 0.2 42
2020-03-28 17:00:00 13.7 10 Sur 21 Sudoeste 0 981.5 -1.2 43
2020-03-28 16:00:00 16.6 3 Este 21 Este 0 981.5 -1.6 32
2020-03-28 15:00:00 16 2 Sudeste 18 Sudeste 0 981.8 -1.7 34
2020-03-28 14:00:00 14.2 5 Este 16 Este 0 982.7 -0.9 37
2020-03-28 13:00:00 13.2 5 Este 12 Nordeste 0 983.1 -0.4 40
2020-03-28 12:00:00 12.3 4 Oeste 16 Sudoeste 0 983.5 0.8 46
2020-03-28 11:00:00 11.1 0 Calma 6 Sudeste 0 983.6 1.7 50
2020-03-28 10:00:00 10 0 Calma 6 Oeste 0 983.5 1.9 59
2020-03-28 09:00:00 7.7 0 Calma 9 Este 0 982.7 2 75
2020-03-28 08:00:00 6.9 3 Este 16 Nordeste 0 981.9 1.7 78
2020-03-28 07:00:00 6.8 6 Este 22 Nordeste 0 981.6 1.6 83
2020-03-28 06:00:00 6.8 8 Nordeste 23 Nordeste 0.7 980.7 0.7 84
2020-03-28 05:00:00 7.2 5 Este 13 Este 3.1 980.2 0.2 84
2020-03-28 04:00:00 7.4 5 Este 13 Nordeste 3 980 0.1 84
2020-03-28 03:00:00 7.3 0 Calma 6 Noroeste 1.9 980 0.3 84
2020-03-28 02:00:00 7.5 0 Calma 4 Este 0.6 980 0.6 83
2020-03-28 01:00:00 7.6 3 Oeste 8 Oeste 0 979.9 0.8 83
2020-03-28 00:00:00 7.5 2 Este 17 Este 0.1 979.7 1.4 83
2020-03-27 23:00:00 7.6 8 Nordeste 25 Nordeste 0.2 979.4 2.3 83
2020-03-27 22:00:00 7.4 6 Nordeste 21 Este 0.8 979.1 2.2 83
2020-03-27 21:00:00 7.8 7 Este 28 Nordeste 1.7 978.3 1.9 83
2020-03-27 20:00:00 7.9 9 Este 27 Nordeste 0.8 977.1 0.9 83
2020-03-27 19:00:00 8.7 8 Este 19 Nordeste 0.1 976.9 0.7 81
2020-03-27 18:00:00 10 7 Sudeste 17 Sudeste 0 976.4 0 66
2020-03-27 17:00:00 10.6 6 Sudeste 15 Sudeste 0 976.2 -0.8 62
2020-03-27 16:00:00 10.7 2 Noroeste 9 Noroeste 0 976.2 -1 68
2020-03-27 15:00:00 9.9 5 Oeste 10 Norte 0.1 976.4 -1 71
2020-03-27 14:00:00 10.7 3 Oeste 10 Oeste 0 977 -0.5 64
2020-03-27 13:00:00 10.1 4 Sudoeste 10 Oeste 0 977.2 0.1 66
2020-03-27 12:00:00 9.9 0 Calma 6 Nordeste 0 977.4 0.6 69
2020-03-27 11:00:00 9.5 0 Calma 7 Nordeste 0 977.5 1.1 78
2020-03-27 10:00:00 8.2 0 Calma 11 Nordeste 0 977.1 1.2 82
2020-03-27 09:00:00 8.1 5 Este 14 Nordeste 0 976.8 1.6 82
2020-03-27 08:00:00 8.5 3 Este 14 Nordeste 0 976.4 0.7 74
2020-03-27 07:00:00 8.8 4 Este 11 Nordeste 0 975.9 0.3 73
2020-03-27 06:00:00 8.7 4 Este 14 Sudeste 0 975.2 -0.8 75
2020-03-27 05:00:00 9.3 6 Sudeste 14 Este 0 975.7 -0.5 69
2020-03-27 04:00:00 9.7 5 Sudeste 15 Este 0 975.6 -0.3 68
2020-03-27 03:00:00 9.9 8 Sudeste 15 Este 0 976 0.2 65
2020-03-27 02:00:00 10.5 2 Este 15 Sudeste 0 976.2 0.5 63
2020-03-27 01:00:00 10.6 6 Sudeste 16 Sudeste 0 975.9 0.8 63
2020-03-27 00:00:00 10.9 4 Sudeste 24 Este 0 975.8 1.6 64
2020-03-26 23:00:00 11.2 7 Este 28 Este 0 975.7 2.4 66
2020-03-26 22:00:00 12.2 11 Este 22 Sudeste 0 975.1 2.9 78
2020-03-26 21:00:00 13 7 Este 21 Este 0 974.2 2.8 64
2020-03-26 20:00:00 14.2 7 Este 16 Este 0 973.3 2.5 48
2020-03-26 19:00:00 15.4 6 Este 28 Este 0 972.2 1.6 47
2020-03-26 18:00:00 17.9 3 Nordeste 28 Noroeste 0 971.4 0.6 35
2020-03-26 17:00:00 20.2 19 Oeste 35 Noroeste 0 970.8 -0.2 21
2020-03-26 16:00:00 20.6 20 Noroeste 43 Noroeste 0 970.6 -1.5 23
2020-03-26 15:00:00 20.1 25 Noroeste 49 Noroeste 0 970.8 -1.8 25
2020-03-26 14:00:00 19.6 26 Noroeste 58 Oeste 0 971 -2.4 28
2020-03-26 13:00:00 18.7 23 Oeste 50 Noroeste 0 972.1 -1.6 33
2020-03-26 12:00:00 17.8 27 Noroeste 50 Noroeste 0 972.6 -1.5 37
2020-03-26 11:00:00 16.3 25 Oeste 48 Sudoeste 0 973.4 -1.1 40
2020-03-26 10:00:00 15.4 21 Oeste 41 Oeste 0 973.7 -0.7 44
2020-03-26 09:00:00 13.3 14 Oeste 21 Oeste 0 974.1 -0.6 54
2020-03-26 08:00:00 10.2 5 Noroeste 12 Oeste 0 974.5 -0.7 72
2020-03-26 07:00:00 8.6 3 Oeste 9 Oeste 0 974.4 -2 75
2020-03-26 06:00:00 7.5 7 Oeste 15 Oeste 0 974.7 -2.5 81
2020-03-26 05:00:00 7.2 9 Noroeste 27 Sudoeste 0.1 975.2 -2.3 81
2020-03-26 04:00:00 7.6 4 Este 14 Nordeste 0.1 976.4 -1.9 81
2020-03-26 03:00:00 6.1 5 Este 10 Nordeste 0 977.2 -2 84
2020-03-26 02:00:00 5.8 0 Calma 8 Este 0 977.5 -2.6 84
2020-03-26 01:00:00 6.3 0 Calma 5 Este 0 978.3 -2.3 83
2020-03-26 00:00:00 6.6 0 Calma 5 Sur 0 979.2 -1.4 83
2020-03-25 23:00:00 7.6 0 Calma 6 Nordeste 0 980.1 -0.4 81
2020-03-25 22:00:00 8.6 2 Noroeste 5 Norte 0 980.6 0 78
2020-03-25 21:00:00 9.4 0 Calma 9 Sudeste 0 980.6 0.2 69
2020-03-25 20:00:00 9.8 4 Sudeste 12 Sur 0 980.5 0.1 69
2020-03-25 19:00:00 9.9 5 Sur 20 Sudeste 0 980.6 1 65
2020-03-25 18:00:00 9.8 6 Sudeste 17 Sudeste 0.2 980.4 0.3 71
2020-03-25 17:00:00 9.7 4 Este 26 Sudeste 0.7 980.4 0.3 72
2020-03-25 16:00:00 11.7 13 Sur 28 Sur 0 979.6 -0.7 53
2020-03-25 15:00:00 13.5 14 Sur 25 Sur 0 980.1 -0.9 43
2020-03-25 14:00:00 14.6 6 Sudoeste 17 Sudoeste 0 980.1 -1.1 37
2020-03-25 13:00:00 14.2 5 Sudoeste 14 Sudoeste 0 980.3 -0.3 36
2020-03-25 12:00:00 13.1 3 Sudeste 15 Este 0 981 -0.7 40
2020-03-25 11:00:00 14.1 3 Este 13 Oeste 0 981.2 -0.3 38
2020-03-25 10:00:00 13.5 0 Calma 9 Este 0 980.6 -0.5 42
2020-03-25 09:00:00 11.5 0 Calma 9 Este 0 981.7 0.6 49
2020-03-25 08:00:00 9.4 5 Nordeste 12 Nordeste 0 981.5 0.6 57
2020-03-25 07:00:00 8.2 2 Norte 8 Norte 0 981.1 0.4 64
2020-03-25 06:00:00 8.3 0 Calma 9 Este 0 981.1 0.3 68
2020-03-25 05:00:00 8.8 2 Este 9 Este 0 980.9 0 69
2020-03-25 04:00:00 9.2 0 Calma 12 Este 0 980.7 -0.1 67
2020-03-25 03:00:00 9.1 3 Este 19 Este 0 980.8 0.4 69
2020-03-25 02:00:00 9.4 5 Este 18 Sudeste 0 980.9 0.6 69
2020-03-25 01:00:00 9.3 3 Este 13 Este 0 980.8 1 78
2020-03-25 00:00:00 9.4 8 Nordeste 29 Nordeste 0 980.4 1.1 78
2020-03-24 23:00:00 9.5 4 Este 19 Nordeste 0.1 980.3 1.8 83
2020-03-24 22:00:00 9.5 9 Nordeste 30 Nordeste 0.4 979.8 1.4 83
2020-03-24 21:00:00 9.9 4 Nordeste 14 Este 0.4 979.3 1.1 83
2020-03-24 20:00:00 10 7 Este 27 Nordeste 1.3 978.5 1 83
2020-03-24 19:00:00 10.3 9 Este 28 Nordeste 1 978.4 1.3 83
2020-03-24 18:00:00 10.4 9 Este 34 Nordeste 0.4 978.2 1.3 81
2020-03-24 17:00:00 10.9 11 Este 42 Este 0 977.5 0.1 78
2020-03-24 16:00:00 10.6 15 Este 43 Nordeste 0.4 977.1 -0.7 81
2020-03-24 15:00:00 10.6 16 Nordeste 45 Nordeste 1.1 976.9 -1.3 83
2020-03-24 14:00:00 10.6 15 Nordeste 46 Nordeste 1.8 977.4 0 83
2020-03-24 13:00:00 10.4 10 Nordeste 37 Nordeste 1.8 977.8 0.9 82
2020-03-24 12:00:00 10.1 6 Este 27 Este 0.9 978.2 0.8 81
2020-03-24 11:00:00 10.3 12 Nordeste 34 Nordeste 1.2 977.4 0.1 77
2020-03-24 10:00:00 9.8 13 Nordeste 36 Nordeste 1.2 976.9 -0.1 80
2020-03-24 09:00:00 9.9 15 Este 49 Nordeste 0.7 977.4 0.9 78
2020-03-24 08:00:00 9.5 15 Nordeste 45 Nordeste 0.4 977.3 0.7 82
2020-03-24 07:00:00 10.3 12 Este 45 Nordeste 0 977 0.3 79
2020-03-24 06:00:00 10.8 14 Este 39 Nordeste 0 976.5 -0.2 71
2020-03-24 05:00:00 10.6 9 Este 37 Este 0 976.6 -0.3 68
2020-03-24 04:00:00 10.7 14 Este 50 Este 0 976.7 -0.6 63
2020-03-24 03:00:00 10.3 15 Este 45 Nordeste 0 976.7 -1.3 73
2020-03-24 02:00:00 10.6 16 Este 52 Nordeste 0.1 976.9 -1.6 72
2020-03-24 01:00:00 10.7 14 Nordeste 34 Nordeste 0 977.3 -1.3 79
2020-03-24 00:00:00 10.5 9 Este 26 Nordeste 0.1 978 -0.6 82
2020-03-23 23:00:00 10.8 7 Este 22 Este 0.5 978.5 0.5 82
2020-03-23 22:00:00 10.7 4 Este 24 Nordeste 1.2 978.6 0.5 82
2020-03-23 21:00:00 10.9 9 Este 27 Este 1 978.6 0.8 81
2020-03-23 20:00:00 11 10 Nordeste 32 Nordeste 0.1 978 0.4 81
2020-03-23 19:00:00 10.8 9 Este 26 Nordeste 0.3 978.1 0.8 82
2020-03-23 18:00:00 11 4 Este 23 Este 0.2 977.8 -0.3 82
2020-03-23 17:00:00 10.8 12 Este 30 Este 1.1 977.6 -1.2 82
2020-03-23 16:00:00 11.7 8 Este 19 Sudeste 0.7 977.3 -2.4 81
2020-03-23 15:00:00 12.3 6 Este 25 Nordeste 0.1 978.1 -1.9 72
2020-03-23 14:00:00 13.2 6 Este 21 Este 0 978.8 -1.5 69
2020-03-23 13:00:00 13.8 11 Sudeste 23 Este 0 979.7 -0.6 52
2020-03-23 12:00:00 13 8 Este 23 Sudeste 0.1 980 0.4 57
2020-03-23 11:00:00 12.7 2 Nordeste 10 Nordeste 0 980.3 1.2 62
2020-03-23 10:00:00 10.3 0 Calma 8 Noroeste 0.2 980.3 1.6 70
2020-03-23 09:00:00 8.7 2 Norte 5 Noroeste 0 979.6 1.4 82
2020-03-23 08:00:00 7 0 Calma 5 Noroeste 0 979.1 1 83
2020-03-23 07:00:00 6.2 0 Calma 8 Nordeste 0 978.7 0.7 83
2020-03-23 06:00:00 6.6 2 Nordeste 7 Este 0 978.2 -0.1 83
2020-03-23 05:00:00 7 0 Calma 7 Este 0 978.1 -0.6 83
2020-03-23 04:00:00 7.4 4 Este 9 Este 0 978 -1 83
2020-03-23 03:00:00 8.1 2 Este 7 Nordeste 0 978.3 -0.8 83
2020-03-23 02:00:00 8.5 4 Este 7 Nordeste 0 978.7 -0.4 83
2020-03-23 01:00:00 8.6 4 Este 10 Este 0 979 0.2 83
2020-03-23 00:00:00 9.2 3 Este 9 Sudeste 0 979.1 1 83
2020-03-22 23:00:00 8.9 4 Este 10 Sudeste 0 979.1 1.6 83
2020-03-22 22:00:00 9.3 3 Nordeste 6 Nordeste 0 978.8 1.6 83
2020-03-22 21:00:00 9.3 3 Sudoeste 5 Sudoeste 0 978.1 1.6 83
2020-03-22 20:00:00 9.8 3 Sur 9 Sur 0 977.5 1.1 82
2020-03-22 19:00:00 10.7 4 Sudoeste 9 Sudoeste 0 977.2 0.7 78
2020-03-22 18:00:00 11.3 6 Sur 11 Sudoeste 0 976.5 -0.1 68
2020-03-22 17:00:00 11.1 5 Sudoeste 19 Sudoeste 0 976.4 0 67
2020-03-22 16:00:00 11.7 9 Sudoeste 16 Sudoeste 0 976.5 -1 69
2020-03-22 15:00:00 10.3 8 Sudoeste 19 Sudoeste 0 976.6 -0.7 81
2020-03-22 14:00:00 10.1 6 Sudoeste 14 Sudeste 0.7 976.4 -0.8 81
2020-03-22 13:00:00 10.1 0 Calma 12 Sudoeste 0.3 977.5 0.9 78
2020-03-22 12:00:00 11.4 3 Sur 11 Sudoeste 0.1 977.3 0.8 74
2020-03-22 11:00:00 9.9 3 Sudeste 17 Este 0.1 977.2 1.2 83
2020-03-22 10:00:00 9.4 6 Este 12 Sudeste 1.8 976.6 0.7 84
2020-03-22 09:00:00 8.8 0 Calma 9 Sudeste 2.8 976.5 0.9 84
2020-03-22 08:00:00 8.6 4 Este 8 Este 1 976 0.5 84
2020-03-22 07:00:00 8.4 0 Calma 5 Nordeste 0.4 975.9 0.3 83
2020-03-22 06:00:00 8 3 Sudoeste 7 Nordeste 0 975.6 -0.5 83
2020-03-22 05:00:00 8.1 3 Este 5 Sudeste 0 975.5 -1.4 83
2020-03-22 04:00:00 7.9 0 Calma 8 Nordeste 0 975.6 -1.2 83
2020-03-22 03:00:00 8.3 3 Este 9 Nordeste 0 976.1 -1.2 83
2020-03-22 02:00:00 8.4 4 Este 9 Nordeste 0 976.9 -0.7 83
2020-03-22 01:00:00 8.8 0 Calma 9 Nordeste 0 976.8 -1.1 82
2020-03-22 00:00:00 9.7 0 Calma 10 Este 0 977.3 -0.1 81
2020-03-21 23:00:00 10.1 0 Calma 8 Este 0 977.6 0.5 80
2020-03-21 22:00:00 10.4 5 Este 14 Este 0 977.9 0.9 80
2020-03-21 21:00:00 10.6 6 Este 15 Este 0 977.4 1 79
2020-03-21 20:00:00 10.9 6 Este 17 Este 0 977.1 0.9 72
2020-03-21 19:00:00 11.8 8 Este 19 Este 0 977 0.3 62
2020-03-21 18:00:00 12.7 10 Este 19 Este 0 976.4 -0.7 59
2020-03-21 17:00:00 13.7 8 Este 20 Este 0 976.2 -1.1 58
2020-03-21 16:00:00 12.8 8 Este 18 Este 0 976.7 -1.4 67
2020-03-21 15:00:00 13.5 5 Sudoeste 16 Sudoeste 0 977.1 -2 56
2020-03-21 14:00:00 12.6 6 Norte 18 Norte 0.1 977.3 -1.6 60
2020-03-21 13:00:00 9.2 6 Oeste 9 Noroeste 4.4 978.1 -0.5 83
2020-03-21 12:00:00 9 7 Oeste 30 Noroeste 3 979.1 0.6 82
2020-03-21 11:00:00 10.7 14 Oeste 24 Oeste 0.1 978.9 0.3 78
2020-03-21 10:00:00 11.8 3 Sudeste 5 Sudeste 0 978.6 0.4 67
2020-03-21 09:00:00 11.4 0 Calma 6 Norte 0 978.5 -0.1 72
2020-03-21 08:00:00 10.8 2 Noroeste 6 Oeste 0 978.6 -0.2 75
2020-03-21 07:00:00 10.6 2 Nordeste 16 Este 0 978.2 -0.9 73
2020-03-21 06:00:00 10.9 3 Este 12 Sudeste 0 978.6 -1.1 75
2020-03-21 05:00:00 10.8 3 Este 9 Este 0 978.8 -1.3 78
2020-03-21 04:00:00 10.6 0 Calma 14 Nordeste 0 979.1 -1.6 78
2020-03-21 03:00:00 10.6 0 Calma 5 Sudoeste 0 979.7 -1.9 82
2020-03-21 02:00:00 10.4 0 Calma 7 Nordeste 0 980.1 -1.8 84
2020-03-21 01:00:00 10.4 0 Calma 2 Oeste 0 980.7 -1.2 84
2020-03-21 00:00:00 10.7 0 Calma 12 Nordeste 0.3 981.6 -0.1 84
2020-03-20 23:00:00 11 6 Este 15 Este 0 981.9 1.1 84
2020-03-20 22:00:00 12 5 Este 18 Este 0 981.9 1.6 73
2020-03-20 21:00:00 12.3 9 Este 22 Este 0 981.7 2.1 71
2020-03-20 20:00:00 12.7 6 Sudeste 17 Sur 0 980.8 1 63
2020-03-20 19:00:00 13.2 6 Sudeste 26 Sudeste 0 980.3 0.1 51
2020-03-20 18:00:00 14 9 Este 26 Este 0 979.6 -1.3 49
2020-03-20 17:00:00 14 9 Este 28 Este 0 979.8 -1.8 48
2020-03-20 16:00:00 14.2 8 Este 26 Nordeste 0 980.2 -2.4 49
2020-03-20 15:00:00 14.4 10 Nordeste 33 Nordeste 0 980.9 -2.3 52
2020-03-20 14:00:00 13 13 Nordeste 29 Nordeste 0 981.6 -1.8 58
2020-03-20 13:00:00 12.9 8 Este 28 Este 0 982.6 0.3 62
2020-03-20 12:00:00 11.9 10 Este 28 Este 0 983.2 0.7 67
2020-03-20 11:00:00 11.9 10 Este 25 Este 0 983.4 1.2 59
2020-03-20 10:00:00 12.1 10 Este 28 Nordeste 0 982.3 0.7 57
2020-03-20 09:00:00 10.9 3 Nordeste 9 Noroeste 0 982.5 1.1 65
2020-03-20 08:00:00 8.3 3 Norte 8 Noroeste 0 982.2 0.8 78
2020-03-20 07:00:00 7 5 Noroeste 7 Noroeste 0 981.6 -0.1 79
2020-03-20 06:00:00 8 5 Noroeste 7 Noroeste 0 981.4 -1 76
2020-03-20 05:00:00 7.3 2 Oeste 8 Norte 0 981.4 -1.6 78
2020-03-20 04:00:00 8.3 4 Noroeste 8 Noroeste 0 981.7 -1.7 77
2020-03-20 03:00:00 8.9 5 Noroeste 12 Norte 0 982.4 -1.6 79
2020-03-20 02:00:00 10.1 5 Nordeste 21 Este 0 983 -0.8 77
2020-03-20 01:00:00 10.3 3 Este 12 Nordeste 0 983.4 -1 77
2020-03-20 00:00:00 9.7 4 Noroeste 13 Nordeste 0 984 -0.3 74
2020-03-19 23:00:00 10.4 6 Nordeste 13 Nordeste 0 983.8 -0.1 70
2020-03-19 22:00:00 10.8 4 Nordeste 11 Este 0 984.4 0.8 69
2020-03-19 21:00:00 11.8 3 Nordeste 19 Nordeste 0 984.3 1 63
2020-03-19 20:00:00 12.7 5 Este 23 Sudeste 0 983.9 0.4 54
2020-03-19 19:00:00 13.9 7 Este 26 Sudeste 0 983.6 -0.3 48
2020-03-19 18:00:00 14.7 9 Este 35 Este 0 983.3 -1.3 46
2020-03-19 17:00:00 14.8 10 Este 26 Sudeste 0 983.5 -1.9 48
2020-03-19 16:00:00 15 6 Este 26 Nordeste 0 983.9 -2.1 52
2020-03-19 15:00:00 14.1 10 Este 27 Nordeste 0 984.6 -1.8 54
2020-03-19 14:00:00 13.8 6 Este 27 Nordeste 0 985.4 -1.2 57
2020-03-19 13:00:00 13.5 10 Nordeste 26 Nordeste 0 986 -0.8 56
2020-03-19 12:00:00 13.1 12 Nordeste 28 Este 0 986.4 0 57
2020-03-19 11:00:00 13.3 9 Este 26 Este 0 986.6 0.5 56
2020-03-19 10:00:00 12.8 8 Este 24 Nordeste 0 986.8 0.7 59
2020-03-19 09:00:00 12.6 7 Este 19 Nordeste 0 986.4 0.4 59
2020-03-19 08:00:00 12.2 5 Este 21 Nordeste 0 986.1 -0.1 62
2020-03-19 07:00:00 12.1 6 Nordeste 19 Nordeste 0 986.1 -0.3 61
2020-03-19 06:00:00 12.2 7 Nordeste 24 Nordeste 0 986 -1 61
2020-03-19 05:00:00 12.4 7 Este 21 Nordeste 0 986.2 -1.2 61
2020-03-19 04:00:00 12.6 7 Este 24 Nordeste 0 986.4 -1.4 59
2020-03-19 03:00:00 12.8 7 Nordeste 21 Nordeste 0 987 -1.1 60
2020-03-19 02:00:00 12.9 8 Nordeste 22 Este 0 987.4 -0.9 61
2020-03-19 01:00:00 12.8 9 Este 24 Nordeste 0 987.8 -0.6 62
2020-03-19 00:00:00 12.9 7 Este 24 Nordeste 0 988.1 0.1 62
2020-03-18 23:00:00 13.1 9 Este 29 Este 0 988.3 0.9 61
2020-03-18 22:00:00 13.4 9 Este 28 Este 0 988.4 1.4 61
2020-03-18 21:00:00 13.6 9 Este 28 Este 0 988 1.2 61
2020-03-18 20:00:00 14 9 Este 28 Este 0 987.4 0.9 56
2020-03-18 19:00:00 14.9 11 Este 30 Este 0 987 0.1 48
2020-03-18 18:00:00 16 12 Este 34 Este 0 986.8 -0.3 43
2020-03-18 17:00:00 17.2 12 Este 32 Este 0 986.5 -1.5 39
2020-03-18 16:00:00 17.4 13 Este 35 Este 0 986.9 -2.1 37
2020-03-18 15:00:00 17 14 Este 32 Este 0 987.1 -2.5 38
2020-03-18 14:00:00 16.6 12 Este 33 Este 0 988 -1.9 42
2020-03-18 13:00:00 16.2 13 Nordeste 32 Nordeste 0 989 -1 47
2020-03-18 12:00:00 15 9 Este 33 Este 0 989.6 0.2 52
2020-03-18 11:00:00 14 11 Este 36 Este 0 989.9 0.6 54
2020-03-18 10:00:00 13.7 10 Este 34 Nordeste 0 990 1.1 56
2020-03-18 09:00:00 13.2 13 Nordeste -- -- -- 989.4 0.5 58
2020-03-18 08:00:00 13 9 Este 35 Nordeste 0 989.3 0.5 60
2020-03-18 07:00:00 12.7 10 Este 32 Nordeste 0 988.9 0.2 62
2020-03-18 06:00:00 12.5 12 Este 30 Nordeste 0 988.9 0 66
2020-03-18 05:00:00 12.9 9 Este 31 Nordeste 0 988.8 0.1 63
2020-03-18 04:00:00 12.6 10 Este 30 Este 0 988.7 -0.2 68
2020-03-18 03:00:00 12.9 9 Este 29 Nordeste 0 988.9 0.4 68
2020-03-18 02:00:00 13.1 9 Este 31 Este 0 988.7 0.6 65
2020-03-18 01:00:00 13.3 11 Este 38 Sudeste 0 988.9 1.2 64
2020-03-18 00:00:00 13.3 14 Este 44 Este 0 988.5 1 68
2020-03-17 23:00:00 13.7 15 Este 45 Nordeste 0 988.1 1.3 68
2020-03-17 22:00:00 14.2 12 Este 45 Nordeste 0 987.7 1.2 72
2020-03-17 21:00:00 13.4 7 Este 24 Nordeste 0 987.5 1.6 78
2020-03-17 20:00:00 13.4 9 Este 24 Nordeste 0 986.8 0.7 73
2020-03-17 19:00:00 14.3 7 Este 26 Nordeste 0 986.5 0.7 62
2020-03-17 18:00:00 14.2 10 Nordeste 24 Nordeste 0 985.9 -0.1 58
2020-03-17 17:00:00 14.3 7 Este 22 Nordeste 0 986.1 -0.2 50
2020-03-17 16:00:00 14.3 8 Este 28 Este 0 985.8 -1 48
2020-03-17 15:00:00 14.7 8 Este 27 Este 0 986 -0.7 45
2020-03-17 14:00:00 15 7 Este 27 Este 0 986.3 -1.2 45
2020-03-17 13:00:00 14.8 10 Este 46 Este 0 986.8 -0.6 46
2020-03-17 12:00:00 13.7 12 Nordeste 32 Este 0 986.7 0.2 56
2020-03-17 11:00:00 11.8 10 Este 21 Sudeste 0 987.5 2.2 66
2020-03-17 10:00:00 11.7 8 Este 22 Este 0 987.4 2.9 57
2020-03-17 09:00:00 10.6 2 Oeste 9 Noroeste 0 986.5 2.7 61
2020-03-17 08:00:00 6.1 5 Noroeste 6 Noroeste 0 985.3 2.2 75
2020-03-17 07:00:00 5.3 4 Noroeste 6 Noroeste 0 984.5 1.6 74
2020-03-17 06:00:00 6.8 3 Norte 7 Norte 0 983.8 1 66
2020-03-17 05:00:00 6.5 5 Noroeste 6 Noroeste 0 983.1 0.5 63
2020-03-17 04:00:00 6.6 0 Calma 6 Norte 0 982.9 0.7 60
2020-03-17 03:00:00 7.1 2 Noroeste 6 Noroeste 0 982.8 0.7 58
2020-03-17 02:00:00 6.8 5 Noroeste 9 Noroeste 0 982.6 1.2 62
2020-03-17 01:00:00 6.4 3 Noroeste 6 Noroeste 0 982.2 1.4 67
2020-03-17 00:00:00 7.4 2 Este 8 Nordeste 0 982.1 2.1 66
2020-03-16 23:00:00 7.9 4 Este 11 Este 0 981.4 2.7 64
2020-03-16 22:00:00 8 3 Este 13 Este 0 980.8 3.2 62
2020-03-16 21:00:00 8.7 5 Este 19 Nordeste 0 980 3.3 62
2020-03-16 20:00:00 9.7 8 Este 25 Nordeste 0 978.7 2.6 62
2020-03-16 19:00:00 11.3 9 Este 23 Nordeste 0 977.6 1.6 47
2020-03-16 18:00:00 14.4 9 Este 26 Este 0 976.7 1.1 31
2020-03-16 17:00:00 16.4 6 Este 17 Este 0 976.1 0.5 21
2020-03-16 16:00:00 15.2 4 Nordeste 21 Noroeste 0 976 -0.6 36
2020-03-16 15:00:00 15.1 12 Noroeste 22 Noroeste 0 975.6 -1.1 17
2020-03-16 14:00:00 15.7 5 Sudeste 15 Sudoeste 0 975.6 -1.6 23
2020-03-16 13:00:00 13.2 8 Oeste 22 Noroeste 0 976.6 -0.4 29
2020-03-16 12:00:00 11.7 11 Noroeste 32 Noroeste 0 976.7 0.4 39
2020-03-16 11:00:00 11.9 17 Noroeste 39 Oeste 0 977.2 1.3 40
2020-03-16 10:00:00 13.1 9 Oeste 17 Oeste 0 977 1.3 70
2020-03-16 09:00:00 12.2 6 Sur -- -- -- 976.3 0.4 77
2020-03-16 08:00:00 11.9 4 Este 10 Sudeste 0 975.9 -0.1 81
2020-03-16 07:00:00 11.8 4 Este 8 Este 0 975.7 -0.7 83
2020-03-16 06:00:00 11.5 3 Sur 5 Noroeste 0 975.9 -1.2 83
2020-03-16 05:00:00 12.3 2 Oeste 10 Sudoeste 0 976 -2.1 81
2020-03-16 04:00:00 12.4 4 Oeste 6 Sudoeste 0 976.4 -2.6 81
2020-03-16 03:00:00 12.7 0 Calma 6 Oeste 0 977.1 -2.7 81
2020-03-16 02:00:00 12.7 3 Oeste 8 Sudoeste 0 978.1 -1.9 82
2020-03-16 01:00:00 12.5 4 Sur 13 Sudeste 0 979 -0.5 82
2020-03-16 00:00:00 12.4 6 Sur 14 Sur 0 979.8 0.9 82
2020-03-15 23:00:00 12.6 6 Sur 20 Sur 0 980 1 81
2020-03-15 22:00:00 12.6 12 Sur 23 Sur 0 979.5 0.1 77
2020-03-15 21:00:00 13.6 6 Sur 13 Sur 0 978.9 -0.8 71
2020-03-15 20:00:00 13.5 3 Sudoeste 10 Sudoeste 0 979 -1 73
2020-03-15 19:00:00 13.8 8 Sudoeste 11 Sudoeste 0 979.4 -0.9 67
2020-03-15 18:00:00 14.3 8 Sudoeste 14 Sudoeste 0 979.7 -0.6 67
2020-03-15 17:00:00 14.9 9 Sudoeste 24 Sudoeste 0 980 -1 63
2020-03-15 16:00:00 16.3 16 Sudoeste 28 Sudoeste 0 980.3 -1.1 53
2020-03-15 15:00:00 16.4 16 Sur 29 Sudoeste 0 980.3 -2.4 54
2020-03-15 14:00:00 17.5 12 Sudoeste 21 Sudoeste 0 981 -2.8 46
2020-03-15 13:00:00 18.8 2 Sudoeste 17 Sudoeste 0 981.4 -2.8 44
2020-03-15 12:00:00 17.3 0 Calma 13 Oeste 0 982.7 -1.1 49
2020-03-15 11:00:00 13.8 5 Sudoeste 10 Sudoeste 0 983.8 0.5 62
2020-03-15 10:00:00 12.8 3 Sudoeste 8 Sur 0 984.2 1.2 72
2020-03-15 09:00:00 11 0 Calma 6 Oeste 0 983.8 0.9 80
2020-03-15 08:00:00 9.5 4 Nordeste 7 Nordeste 0 983.3 0.3 83
2020-03-15 07:00:00 9.1 0 Calma 8 Norte 0 983 0 84
2020-03-15 06:00:00 9.7 4 Noroeste 8 Este 0 982.9 -0.9 84
2020-03-15 05:00:00 11.6 5 Este 9 Sudeste 0 983 -1.2 84
2020-03-15 04:00:00 11.9 3 Este 8 Este 0 983 -1.6 81
2020-03-15 03:00:00 12.6 2 Sur 5 Sudoeste 0 983.8 -1.1 79
2020-03-15 02:00:00 13.1 0 Calma 7 Oeste 0 984.2 -0.6 78
2020-03-15 01:00:00 13.4 4 Sudeste 10 Este 0 984.6 -0.1 76
2020-03-15 00:00:00 13.4 4 Este 10 Este 0 984.9 0.5 78
2020-03-14 23:00:00 13.5 3 Sudoeste 8 Sudoeste 0 984.8 0.8 79
2020-03-14 22:00:00 13.4 4 Sudoeste 11 Sudoeste 0 984.7 1.1 81
2020-03-14 21:00:00 13.3 4 Sudoeste 12 Sudoeste 0 984.4 1.2 81
2020-03-14 20:00:00 13.3 7 Sudoeste 17 Sudoeste 0 984 1.1 82
2020-03-14 19:00:00 13.6 10 Sudoeste 21 Sur 0 983.6 0.4 81
2020-03-14 18:00:00 15.4 10 Sur 21 Sudoeste 0 983.2 -0.3 68
2020-03-14 17:00:00 17.6 12 Sudoeste 24 Sudoeste 0 982.9 -1.1 55
2020-03-14 16:00:00 17.5 14 Sudoeste 29 Sudoeste 0 983.2 -1.4 54
2020-03-14 15:00:00 17.5 15 Sur 24 Sur 0 983.5 -1.2 53
2020-03-14 14:00:00 17.9 13 Sudoeste 24 Sur 0 984 -1.2 53
2020-03-14 13:00:00 17.4 13 Sur 26 Sudoeste 0 984.6 -0.8 49
2020-03-14 12:00:00 18.6 4 Sur 12 Sudoeste 0 984.7 -0.8 43
2020-03-14 11:00:00 18.1 2 Sur 8 Sudeste 0 985.2 0.7 43
2020-03-14 10:00:00 16.9 0 Calma 5 Nordeste 0 985.4 1.2 50
2020-03-14 09:00:00 12.7 2 Este 7 Este 0 985.5 1.6 69
2020-03-14 08:00:00 9.9 0 Calma 7 Nordeste 0 984.5 0.9 82
2020-03-14 07:00:00 9.8 0 Calma 7 Sudeste 0 984.2 0.5 82
2020-03-14 06:00:00 10.6 0 Calma 4 Sudeste 0 983.9 -0.4 79
2020-03-14 05:00:00 10.6 2 Sur 6 Noroeste 0 983.6 -1 78
2020-03-14 04:00:00 10.5 5 Noroeste 8 Noroeste 0 983.7 -1 79
2020-03-14 03:00:00 12 0 Calma 9 Este 0 984.3 -0.3 72
2020-03-14 02:00:00 12.2 2 Este 9 Este 0 984.6 0.1 72
2020-03-14 01:00:00 12.3 0 Calma 4 Sudeste 0 984.7 0.4 78
2020-03-14 00:00:00 11.6 2 Oeste 8 Noroeste 0 984.6 0.7 78
2020-03-13 23:00:00 12.4 0 Calma 8 Oeste 0 984.5 1.2 78
2020-03-13 22:00:00 13.5 0 Calma 6 Sudeste 0 984.3 1.7 75
2020-03-13 21:00:00 13.4 5 Oeste 13 Sudoeste 0 983.9 -- 75
2020-03-13 20:00:00 13.9 10 Sudoeste 16 Sudoeste 0 983.3 1 72
2020-03-13 19:00:00 14.9 9 Sur 16 Sur 0 982.6 0.4 64
2020-03-13 18:00:00 -- -- -- -- -- -- -- -- --
2020-03-13 17:00:00 16.9 9 Sudoeste 22 Sur 0 982.3 -0.6 59
2020-03-13 16:00:00 17.5 13 Sudoeste 23 Sudoeste 0 982.2 -1.2 59
2020-03-13 15:00:00 18 12 Sur 27 Sur 0 982.3 -1.3 52
2020-03-13 14:00:00 18.8 15 Sur 24 Sudoeste 0 982.9 -1 47
2020-03-13 13:00:00 18.6 14 Sur 25 Sur 0 983.4 -- 49
2020-03-13 12:00:00 19.1 14 Sur 26 Sur 0 983.6 0.6 49
2020-03-13 11:00:00 17.9 8 Sudoeste -- -- -- 983.9 1.9 43
2020-03-13 10:00:00 -- -- -- -- -- -- -- -- --
2020-03-13 09:00:00 14 0 Calma 6 Oeste 0 983 1.7 53
2020-03-13 08:00:00 13.1 3 Este 8 Noroeste 0 982 0.9 56
2020-03-13 07:00:00 11.4 0 Calma 6 Nordeste 0 981.8 0.6 63
2020-03-13 06:00:00 11.5 3 Este 5 Nordeste 0 981.3 -0.4 61
2020-03-13 05:00:00 12 0 Calma -- -- 0 981.1 -0.9 57
2020-03-13 04:00:00 12.2 0 Calma 0 Calma 0 981.2 -1.4 58
2020-03-13 03:00:00 12.8 0 Calma 4 Norte 0 981.7 -1.3 56
2020-03-13 02:00:00 12.8 4 Este 6 Este 0 982 -0.9 56
2020-03-13 01:00:00 13.3 0 Calma 5 Nordeste 0 982.6 -0.1 56
2020-03-13 00:00:00 14.1 3 Este 5 Nordeste 0 983 0.5 53
2020-03-12 23:00:00 14.8 0 Calma 5 Sur 0 982.9 0.8 47
2020-03-12 22:00:00 15.9 0 Calma 6 Noroeste 0 982.7 0.7 43
2020-03-12 21:00:00 16.9 0 Calma 5 Noroeste 0 982.5 1 38
2020-03-12 20:00:00 18.4 2 Oeste 6 Sudoeste 0 982.1 0.6 35
2020-03-12 19:00:00 20.6 4 Sudoeste 22 Sudoeste 0 982 0.6 31
2020-03-12 18:00:00 21.6 13 Sudoeste 19 Sudoeste 0 981.5 -- 29
2020-03-12 17:00:00 22.5 12 Sudoeste 21 Sur 0 981.5 -1.8 25
2020-03-12 16:00:00 24.3 14 Sudoeste 25 Sudoeste 0 981.4 -3.1 21
2020-03-12 15:00:00 -- -- -- -- -- -- -- -- --
2020-03-12 14:00:00 26.2 11 Sur 21 Sudoeste 0 983.3 -2.3 20
2020-03-12 13:00:00 25.5 8 Sur 16 Sudoeste 0 984.5 -0.7 21
2020-03-12 12:00:00 26 3 Sur 8 Oeste 0 985.5 -0.6 24
2020-03-12 11:00:00 25 0 Calma 2 Sudeste 0 985.6 -0.3 25
2020-03-12 10:00:00 22.6 0 Calma 3 Este 0 985.2 -0.4 33
2020-03-12 09:00:00 14.6 0 Calma 2 Nordeste 0 986.1 0.5 49
2020-03-12 08:00:00 11.7 0 Calma 3 Este 0 985.9 0.1 61
2020-03-12 07:00:00 10.3 0 Calma 5 Este 0 985.6 -0.6 63
2020-03-12 06:00:00 10.6 2 Este 4 Este 0 985.6 -1.1 62
2020-03-12 05:00:00 11.1 3 Este 5 Este 0 985.8 -1.5 61
2020-03-12 04:00:00 12 0 Calma 5 Este 0 986.2 -1.2 57
2020-03-12 03:00:00 12.2 2 Este 4 Este 0 986.7 -0.8 58
2020-03-12 02:00:00 13 0 Calma 3 Este 0 987.3 0 57
2020-03-12 01:00:00 13.7 0 Calma 6 Este 0 987.4 0.2 56
2020-03-12 00:00:00 13.8 3 Este 6 Este 0 987.5 0.5 57
2020-03-11 23:00:00 15.4 3 Sur 5 Noroeste 0 987.3 0.5 52
2020-03-11 22:00:00 16.4 0 Calma 4 Oeste 0 987.2 1 50
2020-03-11 21:00:00 17.7 2 Nordeste 5 Sudeste 0 987 1.5 46
2020-03-11 20:00:00 18.1 4 Sudeste 11 Este 0 986.8 1.3 40
2020-03-11 19:00:00 21.5 5 Este 13 Nordeste 0 986.2 0.5 30
2020-03-11 18:00:00 24.6 5 Sudoeste 14 Sudoeste 0 985.5 -0.2 25
2020-03-11 17:00:00 25.5 9 Sur 20 Sur 0 985.5 -1.2 24
2020-03-11 16:00:00 25 13 Sur 24 Sur 0 985.7 -2 24
2020-03-11 15:00:00 25.8 14 Sudoeste 24 Sudoeste 0 985.7 -2.7 23
2020-03-11 14:00:00 25.5 12 Sur 19 Sur 0 986.7 -2 22
2020-03-11 13:00:00 27.8 0 Calma 10 Sudoeste 0 987.7 -1.1 17
2020-03-11 12:00:00 27.5 0 Calma 0 Calma 0 988.4 -0.7 22
2020-03-11 11:00:00 26 0 Calma 0 Calma 0 988.7 -0.1 27
2020-03-11 10:00:00 21.6 0 Calma 0 Calma 0 988.8 0.1 36
2020-03-11 09:00:00 14.4 0 Calma 3 Este 0 989.1 0.8 53
2020-03-11 08:00:00 11.6 0 Calma 5 Oeste 0 988.8 0 71
2020-03-11 07:00:00 9.2 0 Calma 8 Nordeste 0 988.7 -0.5 78
2020-03-11 06:00:00 10.2 0 Calma 3 Oeste 0 988.3 -1.3 75
2020-03-11 05:00:00 9.5 0 Calma 4 Sudoeste 0 988.8 -1.3 75
2020-03-11 04:00:00 10 0 Calma 5 Noroeste 0 989.2 -1.1 74
2020-03-11 03:00:00 10.6 0 Calma 4 Noroeste 0 989.6 -1 72
2020-03-11 02:00:00 10.1 0 Calma 5 Nordeste 0 990.1 -0.7 70
2020-03-11 01:00:00 10.7 0 Calma 5 Nordeste 0 990.3 -0.5 68
2020-03-11 00:00:00 11 0 Calma 4 Nordeste 0 990.6 -0.2 66
2020-03-10 23:00:00 11.5 0 Calma 6 Este 0 990.8 -0.1 62
2020-03-10 22:00:00 12.7 0 Calma 6 Este 0 990.8 -0.1 57
2020-03-10 21:00:00 13.4 0 Calma 6 Noroeste 0 990.8 0.6 57
2020-03-10 20:00:00 13.8 4 Sudoeste 10 Sudoeste 0 990.9 0.9 53
2020-03-10 19:00:00 15.2 4 Sudoeste 15 Sudoeste 0 990.9 0.8 46
2020-03-10 18:00:00 16.5 9 Sudoeste 20 Sudoeste 0 990.2 -0.2 46
2020-03-10 17:00:00 17.7 13 Sudoeste 25 Sudoeste 0 990 -0.8 45
2020-03-10 16:00:00 17.5 13 Sudoeste 24 Sudoeste 0 990.1 -1.1 46
2020-03-10 15:00:00 17.8 14 Sudoeste 27 Sudoeste 0 990.4 -1.2 47
2020-03-10 14:00:00 16.2 17 Sudoeste 33 Sur 0 990.8 -0.9 49
2020-03-10 13:00:00 17.5 14 Sur 31 Sudoeste 0 991.2 0.6 48
2020-03-10 12:00:00 17.8 13 Sur 20 Sur 0 991.6 1 37
2020-03-10 11:00:00 17.7 9 Sur 15 Sur 0 991.7 2 34
2020-03-10 10:00:00 18.7 0 Calma 6 Este 0 990.6 1.3 36
2020-03-10 09:00:00 13.6 0 Calma 10 Sudoeste 0 990.6 2.1 48
2020-03-10 08:00:00 11 0 Calma 9 Sudeste 0 989.7 1.2 52
2020-03-10 07:00:00 10.4 5 Nordeste 11 Sudeste 0 989.3 1.5 53
2020-03-10 06:00:00 10.4 0 Calma 9 Noroeste 0 988.5 0.6 53
2020-03-10 05:00:00 11.3 6 Nordeste 14 Nordeste 0 988.5 0.2 52
2020-03-10 04:00:00 11.2 5 Nordeste 13 Este 0 987.8 -0.6 55
2020-03-10 03:00:00 10.4 0 Calma 11 Nordeste 0 987.9 -0.6 58
2020-03-10 02:00:00 11 0 Calma 10 Sudeste 0 988.3 0 59
2020-03-10 01:00:00 11.5 0 Calma 10 Oeste 0 988.4 0.5 57
2020-03-10 00:00:00 11.6 0 Calma 10 Oeste 0 988.5 1.2 57
2020-03-09 23:00:00 12.1 0 Calma 11 Este 0 988.3 1.2 54
2020-03-09 22:00:00 12.7 5 Nordeste 12 Nordeste 0 987.9 1.3 51
2020-03-09 21:00:00 14.1 0 Calma 9 Oeste 0 987.3 1.3 46
2020-03-09 20:00:00 13.5 8 Oeste 12 Oeste 0 987.1 0.6 43
2020-03-09 19:00:00 16.2 3 Oeste 18 Sudoeste 0 986.6 -0.1 39
2020-03-09 18:00:00 17.4 10 Sudoeste 24 Sudoeste 0 986 -0.7 35
2020-03-09 17:00:00 18.5 12 Sur 27 Sur 0 986.5 -0.5 33
2020-03-09 16:00:00 18.9 14 Sudoeste 27 Sudoeste 0 986.7 -0.8 34
2020-03-09 15:00:00 19.5 11 Sudoeste 24 Sudoeste 0 986.7 -1.2 34
2020-03-09 14:00:00 19.5 13 Sur 27 Sudoeste 0 987 -1.5 35
2020-03-09 13:00:00 20.3 13 Sudoeste 36 Sudoeste 0 987.5 -1.1 32
2020-03-09 12:00:00 21 15 Sudoeste 26 Sudoeste 0 987.9 -0.9 27
2020-03-09 11:00:00 19.6 15 Oeste 24 Noroeste 0 988.5 0.6 33
2020-03-09 10:00:00 17.3 4 Sur 9 Este 0 988.6 1.3 34
2020-03-09 09:00:00 14.5 3 Este 14 Este 0 988.8 2 37
2020-03-09 08:00:00 14.6 3 Noroeste 18 Noroeste 0 987.9 1.1 35
2020-03-09 07:00:00 14.9 10 Norte 21 Norte 0 987.3 0.4 33
2020-03-09 06:00:00 15.3 12 Oeste 21 Sudoeste 0 986.8 -0.5 31
2020-03-09 05:00:00 15.1 4 Oeste 21 Noroeste 0 986.8 -0.5 31
2020-03-09 04:00:00 16 10 Oeste 31 Noroeste 0 986.9 -0.6 31
2020-03-09 03:00:00 16 7 Oeste 24 Oeste 0 987.3 0 31
2020-03-09 02:00:00 16.2 11 Noroeste 25 Noroeste 0 987.3 -0.8 29
2020-03-09 01:00:00 17.6 15 Noroeste 35 Norte 0 987.5 -0.9 27
2020-03-09 00:00:00 17.5 8 Oeste 19 Oeste 0 987.3 -0.6 27
2020-03-08 23:00:00 16.7 0 Calma 22 Noroeste 0 988.1 0.8 28
2020-03-08 22:00:00 14.9 4 Sudoeste 8 Sur 0 988.4 1.7 47
2020-03-08 21:00:00 14.4 0 Calma 9 Noroeste 0 987.9 1.9 48
2020-03-08 20:00:00 15.9 5 Nordeste 13 Nordeste 0 987.3 1.3 46
2020-03-08 19:00:00 18.5 3 Este 12 Nordeste 0 986.7 0.4 36
2020-03-08 18:00:00 21.1 4 Sudeste 15 Sur 0 986 -0.7 28
2020-03-08 17:00:00 21.6 6 Sur 22 Sudeste 0 986 -1.8 28
2020-03-08 16:00:00 21.4 13 Sur 25 Sur 0 986.3 -3.1 30
2020-03-08 15:00:00 20.6 14 Sudoeste 25 Sudoeste 0 986.7 -2.9 33
2020-03-08 14:00:00 19.2 12 Sudoeste 25 Sudoeste 0 987.8 -2.1 33
2020-03-08 13:00:00 19.3 10 Sur 19 Sudoeste 0 989.4 -0.5 29
2020-03-08 12:00:00 19.5 4 Sudoeste 16 Sudoeste 0 989.6 -1.1 30
2020-03-08 11:00:00 18.4 2 Sudoeste 9 Sudoeste 0 989.9 0.6 33
2020-03-08 10:00:00 17 0 Calma 5 Sudoeste 0 989.9 0.8 37
2020-03-08 09:00:00 11.1 2 Este 7 Este 0 990.7 2.1 51
2020-03-08 08:00:00 7.2 0 Calma 8 Sudoeste 0 989.3 0.6 63
2020-03-08 07:00:00 6.9 0 Calma 5 Este 0 989.1 0.2 61
2020-03-08 06:00:00 7.4 3 Este 8 Nordeste 0 988.6 -0.6 58
2020-03-08 05:00:00 8.4 0 Calma 12 Sudoeste 0 988.7 -0.7 53
2020-03-08 04:00:00 10 3 Este 14 Noroeste 0 988.9 -0.8 47
2020-03-08 03:00:00 11.1 4 Sur 11 Sudoeste 0 989.2 -0.7 46
2020-03-08 02:00:00 11.1 2 Sudoeste 9 Sudoeste 0 989.4 -0.7 48
2020-03-08 01:00:00 11 3 Sur 8 Noroeste 0 989.7 -0.2 51
2020-03-08 00:00:00 11 5 Noroeste 8 Oeste 0 989.9 0.3 53
2020-03-07 23:00:00 11.2 0 Calma 10 Noroeste 0 990.1 1.4 59
2020-03-07 22:00:00 11.3 7 Oeste 10 Oeste 0 989.9 2 59
2020-03-07 21:00:00 11.9 3 Noroeste 10 Este 0 989.6 2.8 58
2020-03-07 20:00:00 13.3 5 Este 15 Este 0 988.7 2.1 54
2020-03-07 19:00:00 15.2 2 Nordeste 19 Sudoeste 0 987.9 1.4 47
2020-03-07 18:00:00 16.7 9 Sudoeste 21 Sudoeste 0 986.8 0.8 40
2020-03-07 17:00:00 16.2 13 Sur 30 Sur 0 986.6 0 36
2020-03-07 16:00:00 16.3 17 Sudoeste 35 Sudoeste 0 986.5 -1.3 30
2020-03-07 15:00:00 17.7 4 Sudoeste 27 Sudoeste 0 986 -2.8 23
2020-03-07 14:00:00 20.1 12 Nordeste 27 Este 0 986.6 -2.1 23
2020-03-07 13:00:00 19 10 Este 27 Este 0 987.8 -0.6 23
2020-03-07 12:00:00 17.3 7 Sudeste 22 Norte 0 988.8 -0.1 24
2020-03-07 11:00:00 16.8 8 Noroeste 37 Noroeste 0 988.7 0.8 27
2020-03-07 10:00:00 14.9 4 Noroeste 32 Oeste 0 988.4 0.4 30
2020-03-07 09:00:00 11.8 19 Oeste 29 Oeste 0 988.9 1 36
2020-03-07 08:00:00 9.1 6 Noroeste 9 Noroeste 0 987.9 0.1 41
2020-03-07 07:00:00 8.3 3 Este 8 Este 0 988 0.4 43
2020-03-07 06:00:00 8.6 0 Calma 8 Nordeste 0 987.9 0.2 43
2020-03-07 05:00:00 9.2 2 Nordeste 13 Sudoeste 0 987.8 0.1 43
2020-03-07 04:00:00 9.5 0 Calma 20 Sudoeste 0 987.6 -0.1 43
2020-03-07 03:00:00 9.5 3 Nordeste 12 Nordeste 0 987.7 0.1 44
2020-03-07 02:00:00 9.7 6 Sur 15 Norte 0 987.7 0.8 43
2020-03-07 01:00:00 10.9 8 Norte 16 Norte 0 987.7 1.6 42
2020-03-07 00:00:00 11.3 0 Calma 9 Norte 0 987.6 2.6 40
2020-03-06 23:00:00 12.3 0 Calma 26 Noroeste 0 986.9 2.6 38
2020-03-06 22:00:00 13.4 15 Noroeste 36 Noroeste 0 986.1 2.9 36
2020-03-06 21:00:00 13.9 19 Noroeste 41 Noroeste 0 985 2.8 36
2020-03-06 20:00:00 14.3 14 Oeste 31 Oeste 0 984.3 2.8 36
2020-03-06 19:00:00 15.2 13 Noroeste 39 Oeste 0 983.2 1.8 35
2020-03-06 18:00:00 16.3 13 Noroeste 44 Noroeste 0 982.2 1.1 33
2020-03-06 17:00:00 17.3 22 Noroeste 51 Oeste 0 981.5 0 31
2020-03-06 16:00:00 16.8 27 Noroeste 59 Noroeste 0 981.4 -0.9 31
2020-03-06 15:00:00 17.3 27 Noroeste 64 Noroeste 0 981.1 -1 31
2020-03-06 14:00:00 17.8 30 Noroeste 69 Noroeste 0 981.5 -1.3 31
2020-03-06 13:00:00 16.4 33 Oeste 69 Oeste 0 982.3 -0.7 37
2020-03-06 12:00:00 14.9 44 Oeste 72 Oeste 0 982.1 -1.2 38
2020-03-06 11:00:00 14 37 Oeste 68 Oeste 0 982.8 0 40
2020-03-06 10:00:00 12.5 33 Noroeste 54 Noroeste 0 983 0.3 43
2020-03-06 09:00:00 11.5 25 Oeste 44 Noroeste 0 983.3 1.6 45
2020-03-06 08:00:00 10.4 8 Noroeste 25 Oeste 0 982.8 1.5 47
2020-03-06 07:00:00 10.6 15 Noroeste 42 Noroeste 0 982.7 1.5 46
2020-03-06 06:00:00 11.4 26 Noroeste 52 Noroeste 0 981.7 0.3 45
2020-03-06 05:00:00 11.7 30 Noroeste 54 Oeste 0 981.3 0.3 46
2020-03-06 04:00:00 12.6 22 Noroeste 41 Oeste 0 981.2 0.6 44
2020-03-06 03:00:00 12.6 12 Oeste 35 Noroeste 0 981.4 1.6 45
2020-03-06 02:00:00 13.6 18 Noroeste 48 Noroeste 0 981 1.1 44
2020-03-06 01:00:00 14.1 17 Oeste 42 Noroeste 0 980.6 0.6 43
2020-03-06 00:00:00 14.6 25 Oeste 56 Oeste 0 979.8 -0.1 42
2020-03-05 23:00:00 14.7 23 Oeste 50 Noroeste 0 979.9 0.6 42
2020-03-05 22:00:00 15 18 Noroeste 45 Norte 0 980 2.3 42
2020-03-05 21:00:00 15.8 13 Norte 33 Norte 0 979.9 3.1 39
2020-03-05 20:00:00 16.6 9 Noroeste 44 Noroeste 0 979.3 3.2 37
2020-03-05 19:00:00 17.4 24 Oeste 66 Oeste 0 977.7 2.3 43
2020-03-05 18:00:00 18.5 29 Oeste 73 Oeste 0 976.8 1.6 43
2020-03-05 17:00:00 19.1 33 Noroeste 68 Noroeste 0 976.1 -0.1 40
2020-03-05 16:00:00 22 29 Noroeste 70 Noroeste 0 975.4 -2.1 32
2020-03-05 15:00:00 23.8 27 Noroeste 57 Oeste 0 975.2 -3 29
2020-03-05 14:00:00 23 24 Noroeste 48 Noroeste 0 976.2 -2.1 29
2020-03-05 13:00:00 22.7 10 Noroeste 48 Noroeste 0 977.5 -1.4 29
2020-03-05 12:00:00 21.9 27 Oeste 44 Oeste 0 978.2 -1.6 30
2020-03-05 11:00:00 19.3 17 Oeste 30 Oeste 0 978.3 -1 41
2020-03-05 10:00:00 17.2 11 Oeste 24 Oeste 0 978.9 -0.6 46
2020-03-05 09:00:00 14.3 12 Oeste 31 Oeste 0 979.8 -0.5 54
2020-03-05 08:00:00 13.5 23 Oeste 40 Oeste 0 979.3 -1.2 56
2020-03-05 07:00:00 13.1 21 Oeste 33 Oeste 0 979.5 -1.6 59
2020-03-05 06:00:00 12.4 4 Norte 10 Noroeste 0 980.3 -1.4 59
2020-03-05 05:00:00 12.5 3 Noroeste 12 Oeste 0 980.5 -1.8 58
2020-03-05 04:00:00 13.4 5 Noroeste 12 Norte 0 981.1 -1.5 56
2020-03-05 03:00:00 13.5 3 Noroeste 12 Sudoeste 0 981.7 -1.4 56
2020-03-05 02:00:00 13.1 0 Calma 8 Sudoeste 0 982.3 -1.1 56
2020-03-05 01:00:00 14.2 0 Calma 9 Sudoeste 0 982.6 -0.8 54
2020-03-05 00:00:00 14.5 6 Oeste 21 Noroeste 0 983.1 -0.5 52
2020-03-04 23:00:00 15.9 17 Noroeste 28 Noroeste 0 983.4 0.1 47
2020-03-04 22:00:00 16.1 0 Calma 17 Noroeste 0 983.4 0.7 48
2020-03-04 21:00:00 16.3 2 Oeste 8 Oeste 0 983.6 1.5 54
2020-03-04 20:00:00 16.9 0 Calma 12 Sudoeste 0 983.3 1.5 50
2020-03-04 19:00:00 17.8 8 Sudoeste 13 Sudoeste 0 982.7 0.3 46
2020-03-04 18:00:00 19.6 6 Sur 18 Sudoeste 0 982.1 -0.3 40
2020-03-04 17:00:00 22 10 Sudoeste 21 Sudoeste 0 981.8 -1.8 37
2020-03-04 16:00:00 22.4 12 Sudoeste 25 Sur 0 982.4 -2.2 36
2020-03-04 15:00:00 23.6 11 Sudoeste 32 Sudoeste 0 982.4 -2.8 33
2020-03-04 14:00:00 23.7 18 Oeste 35 Oeste 0 983.6 -2.1 33
2020-03-04 13:00:00 22.3 18 Noroeste 35 Noroeste 0 984.6 -0.6 38
2020-03-04 12:00:00 20.7 21 Oeste 41 Noroeste 0 985.2 -0.4 43
2020-03-04 11:00:00 19.7 21 Noroeste 50 Noroeste 0 985.7 0.4 47
2020-03-04 10:00:00 18.2 23 Noroeste 50 Noroeste 0 985.2 -0.2 50
2020-03-04 09:00:00 17.1 20 Noroeste 47 Oeste 0 985.6 0.5 53
2020-03-04 08:00:00 15.9 25 Noroeste 42 Noroeste 0 985.3 0.2 56
2020-03-04 07:00:00 15.5 18 Oeste 38 Noroeste 0 985.4 0.6 56
2020-03-04 06:00:00 15.8 17 Noroeste 32 Noroeste 0 985.1 0.6 54
2020-03-04 05:00:00 16 18 Oeste 34 Noroeste 0 985.1 -0.3 53
2020-03-04 04:00:00 16.6 23 Oeste 59 Noroeste 0 984.8 -0.6 51
2020-03-04 03:00:00 16.5 35 Oeste 55 Noroeste 0 984.5 0 51
2020-03-04 02:00:00 16.4 24 Oeste 36 Oeste 0 985.4 1.4 51
2020-03-04 01:00:00 16 17 Sudoeste 54 Oeste 0 985.4 1.6 52
2020-03-04 00:00:00 16.3 27 Oeste 55 Noroeste 0 984.5 0.8 49
2020-03-03 23:00:00 16.5 27 Noroeste 41 Noroeste 0 984 1 47
2020-03-03 22:00:00 17 28 Noroeste 58 Oeste 0 983.8 1.3 45
2020-03-03 21:00:00 16.9 20 Noroeste 44 Noroeste 0 983.7 2.5 43
2020-03-03 20:00:00 16.4 19 Oeste 42 Oeste 0 983 2.9 43
2020-03-03 19:00:00 16.8 24 Oeste 63 Oeste 0 982.5 2.1 39
2020-03-03 18:00:00 18.6 38 Noroeste 68 Oeste 0 981.2 0.4 34
2020-03-03 17:00:00 19.5 33 Noroeste 61 Noroeste 0 980.1 -0.5 30
2020-03-03 16:00:00 20.4 30 Oeste 64 Noroeste 0 980.4 -1.5 28
2020-03-03 15:00:00 20.5 37 Oeste 71 Noroeste 0 980.8 -2.1 28
2020-03-03 14:00:00 20.9 35 Oeste 59 Oeste 0 980.6 -2.9 27
2020-03-03 13:00:00 19.2 31 Noroeste 63 Oeste 0 981.9 -2.4 23
2020-03-03 12:00:00 18.7 32 Noroeste 64 Oeste 0 982.9 -2 22
2020-03-03 11:00:00 17.1 20 Oeste 35 Oeste 0 983.5 -1 28
2020-03-03 10:00:00 13.5 19 Oeste 30 Oeste 0 984.3 0.1 38
2020-03-03 09:00:00 12.4 12 Oeste 22 Oeste 0 984.9 0.6 43
2020-03-03 08:00:00 11 17 Oeste 38 Noroeste 0 984.5 0.9 46
2020-03-03 07:00:00 11 15 Oeste 34 Oeste 0 984.2 0.1 46
2020-03-03 06:00:00 10.8 10 Noroeste 35 Oeste 0 984.3 0.8 46
2020-03-03 05:00:00 11.6 17 Oeste 30 Oeste 0 983.6 -0.1 44
2020-03-03 04:00:00 11.9 10 Sudoeste 46 Oeste 0 984.1 0.2 42
2020-03-03 03:00:00 12.4 22 Oeste 47 Oeste 0 983.5 0.1 39
2020-03-03 02:00:00 12.8 25 Noroeste 49 Oeste 0 983.7 1 37
2020-03-03 01:00:00 13.4 9 Oeste 33 Oeste 0 983.9 1.4 37
2020-03-03 00:00:00 13.6 18 Oeste 54 Noroeste 0 983.4 2.2 36
2020-03-02 23:00:00 14.4 23 Noroeste 47 Norte 0 982.7 2.7 34
2020-03-02 22:00:00 14.7 19 Noroeste 55 Oeste 0 982.5 4.5 33
2020-03-02 21:00:00 15.2 22 Noroeste 58 Noroeste 0 981.2 4.9 33
2020-03-02 20:00:00 16.3 26 Noroeste 59 Noroeste 0 980 4.9 31
2020-03-02 19:00:00 18 23 Noroeste 56 Noroeste 0 978 3.6 27
2020-03-02 18:00:00 19.7 23 Noroeste 58 Oeste 0 976.3 2.9 26
2020-03-02 17:00:00 21.1 37 Noroeste 71 Noroeste 0 975.1 1.4 25
2020-03-02 16:00:00 22.1 33 Noroeste 70 Noroeste 0 974.4 0.9 26
2020-03-02 15:00:00 22.1 38 Noroeste 79 Oeste 0 973.4 0.1 26
2020-03-02 14:00:00 21.9 46 Noroeste 85 Noroeste 0 973.7 0.2 30
2020-03-02 13:00:00 22.4 41 Noroeste 82 Oeste 0 973.5 0.1 31
2020-03-02 12:00:00 21 44 Noroeste 86 Oeste 0.2 973.3 -0.3 36
2020-03-02 11:00:00 19.7 37 Oeste 95 Noroeste 0 973.5 0.3 39
2020-03-02 10:00:00 17.8 47 Oeste 78 Noroeste 0 973.4 -0.5 40
2020-03-02 09:00:00 16.3 21 Oeste 71 Noroeste 0 973.6 -0.2 46
2020-03-02 08:00:00 16.3 39 Oeste 77 Noroeste 0 973.2 -1.1 44
2020-03-02 07:00:00 16.5 39 Oeste 68 Oeste 0 973.9 -1.1 43
2020-03-02 06:00:00 16.5 28 Oeste 57 Oeste 0 973.8 -2.3 42
2020-03-02 05:00:00 12.4 3 Oeste 13 Oeste 0 974.3 -3.5 59
2020-03-02 04:00:00 12.8 0 Calma 9 Sur 0 975 -3.8 55
2020-03-02 03:00:00 13.8 6 Sur 12 Sur 0 976.1 -3.3 50
2020-03-02 02:00:00 14.5 8 Oeste 14 Oeste 0 977.8 -2.6 47
2020-03-02 01:00:00 15.1 9 Oeste 16 Noroeste 0 978.8 -1.2 46
2020-03-02 00:00:00 15.2 9 Oeste 18 Sudoeste 0 979.4 -1.1 44
2020-03-01 23:00:00 15.4 12 Oeste 24 Noroeste 0 980.4 0 43
2020-03-01 22:00:00 16 13 Noroeste 27 Oeste 0 980 -0.6 42
2020-03-01 21:00:00 16.4 15 Oeste 36 Oeste 0 980.5 0.8 41
2020-03-01 20:00:00 16.9 10 Oeste 24 Noroeste 0 980.4 0.1 38
2020-03-01 19:00:00 18 5 Oeste 32 Norte 0 980.6 0.7 36
2020-03-01 18:00:00 19 19 Norte 33 Noroeste 0 979.7 -0.9 34
2020-03-01 17:00:00 19.6 18 Noroeste 47 Noroeste 0 980.3 -1 34
2020-03-01 16:00:00 19.9 24 Noroeste 45 Noroeste 0 979.9 -2.3 35
2020-03-01 15:00:00 18.9 19 Oeste 42 Oeste 0 980.6 -1.9 37
2020-03-01 14:00:00 18.9 18 Oeste 39 Oeste 0 981.3 -1.3 37
2020-03-01 13:00:00 18.9 11 Noroeste 39 Oeste 0 982.2 -0.4 37
2020-03-01 12:00:00 17.5 24 Noroeste 45 Noroeste 0 982.5 1 39
2020-03-01 11:00:00 16 12 Oeste 24 Noroeste 0 982.6 1.2 40
2020-03-01 10:00:00 15.3 18 Noroeste 44 Noroeste 0 982.6 1.8 41
2020-03-01 09:00:00 15 24 Noroeste 49 Noroeste 0 981.5 0.9 43
2020-03-01 08:00:00 15 10 Noroeste 41 Noroeste 0 981.4 1.6 44
2020-03-01 07:00:00 15.5 14 Noroeste 49 Noroeste 0 980.8 1.1 44
2020-03-01 06:00:00 16 23 Noroeste 45 Noroeste 0 980.6 0.8 44
2020-03-01 05:00:00 16.5 27 Noroeste 49 Noroeste 0 979.8 -0.7 45
2020-03-01 04:00:00 16.4 19 Oeste 41 Noroeste 0 979.7 -1 50
2020-03-01 03:00:00 16.9 21 Noroeste 48 Noroeste 0 979.8 -0.7 47
2020-03-01 02:00:00 16.9 24 Noroeste 37 Noroeste 0 980.5 0 46
2020-03-01 01:00:00 16.8 12 Oeste 40 Noroeste 0 980.7 0.4 47
2020-03-01 00:00:00 16.9 18 Noroeste 49 Oeste 0 980.5 1.2 46
2020-02-29 23:00:00 17.3 21 Noroeste 48 Noroeste 0 980.5 1.2 43
2020-02-29 22:00:00 17.6 15 Noroeste 46 Noroeste 0 980.3 2 35
2020-02-29 21:00:00 18.6 27 Oeste 77 Oeste 0 979.3 1.6 28
2020-02-29 20:00:00 20 15 Noroeste 35 Noroeste 0 979.3 1.7 22
2020-02-29 19:00:00 21.2 12 Oeste 26 Sudoeste 0 978.3 0.3 19
2020-02-29 18:00:00 23.3 14 Oeste 32 Noroeste 0 977.7 -0.7 17
2020-02-29 17:00:00 24.3 15 Oeste 31 Noroeste 0 977.6 -1.8 17
2020-02-29 16:00:00 23.3 14 Sur 32 Sudoeste 0 978 -2.2 18
2020-02-29 15:00:00 23.5 13 Sudoeste 37 Oeste 0 978.4 -2.2 15
2020-02-29 14:00:00 24.4 18 Noroeste 42 Noroeste 0 979.4 -1.9 13
2020-02-29 13:00:00 23.3 17 Noroeste 39 Oeste 0 980.2 -1.4 15
2020-02-29 12:00:00 20.7 17 Sudoeste 48 Noroeste 0 980.6 -0.8 17
2020-02-29 11:00:00 18.7 29 Noroeste 49 Noroeste 0 981.3 0.7 18
2020-02-29 10:00:00 14.9 4 Oeste 9 Oeste 0 981.6 0.6 36
2020-02-29 09:00:00 10.7 3 Sur 8 Oeste 0 981.4 0.7 44
2020-02-29 08:00:00 6 3 Este 10 Este 0 980.6 -0.6 73
2020-02-29 07:00:00 5.6 3 Este 8 Nordeste 0 981 -0.7 72
2020-02-29 06:00:00 7.5 3 Noroeste 6 Noroeste 0 980.7 -1.7 64
2020-02-29 05:00:00 7.3 0 Calma 4 Oeste 0 981.2 -1.8 68
2020-02-29 04:00:00 7.3 0 Calma 6 Nordeste 0 981.7 -1.8 69
2020-02-29 03:00:00 8.4 0 Calma 4 Noroeste 0 982.4 -1.7 65
2020-02-29 02:00:00 9.2 0 Calma 4 Sudoeste 0 983 -1.5 59
2020-02-29 01:00:00 9.5 0 Calma 3 Sur 0 983.5 -1.1 57
2020-02-29 00:00:00 10.1 0 Calma 2 Este 0 984.1 -0.3 58